Flight Track Log - Related Links

Times and Time Zones

All times are in EDT time to prevent confusion due to time zone crossing. See the EJA922 flight status page for this flight to view local times or setup timezone preferences in your user account.

Time Position Orientation Groundspeed Altitude Reporting Facility
EDT Latitude Longitude Course Direction KTS MPH feet Rate Location/Type
Wed 10:06:21 AM 32.9833 -96.7833 68° East 206 237 2,000  Level Dallas / Fort Worth TRACON
Wed 10:07:21 AM 33.0167 -96.7500 40° Northeast 242 278 2,800 2,683 Climbing Dallas / Fort Worth TRACON
Wed 10:09:02 AM 33.1306 -96.8181 333° Northwest 295 339 9,200 3,876 Climbing Fort Worth Center
Wed 10:10:02 AM 33.1706 -96.9097 298° West 287 330 13,200 2,750 Climbing Fort Worth Center
Wed 10:11:02 AM 33.2667 -96.9489 341° North 308 354 14,700 1,950 Climbing Fort Worth Center
Wed 10:12:02 AM 33.3794 -96.9731 350° North 351 404 17,100 1,950 Climbing Fort Worth Center
Wed 10:13:02 AM 33.4778 -96.9950 349° North 391 450 18,600 1,650 Climbing Fort Worth Center
Wed 10:14:02 AM 33.6031 -97.0169 352° North 411 473 20,400 1,600 Climbing Fort Worth Center
Wed 10:15:02 AM 33.7094 -97.0039 North 411 473 21,800 1,388 Climbing Fort Worth Center
Wed 10:16:03 AM 33.8178 -96.9933 North 426 490 23,200 1,400 Climbing Fort Worth Center
Wed 10:17:02 AM 33.9514 -96.9803 North 431 496 24,600 1,412 Climbing Fort Worth Center
Wed 10:18:02 AM 34.0767 -96.9647 North 436 502 26,000 1,450 Climbing Fort Worth Center
Wed 10:19:02 AM 34.2081 -96.9514 North 430 495 27,500 1,300 Climbing Fort Worth Center
Wed 10:20:02 AM 34.3353 -96.9356 North 444 511 28,600 1,050 Climbing Fort Worth Center
Wed 10:21:02 AM 34.4625 -96.9222 North 449 517 29,600 1,000 Climbing Fort Worth Center
Wed 10:22:02 AM 34.5958 -96.9064 North 460 529 30,600 1,400 Climbing Fort Worth Center
Wed 10:23:02 AM 34.7272 -96.8881 North 472 543 32,400 1,800 Climbing Fort Worth Center
Wed 10:24:02 AM 34.8586 -96.8744 North 472 543 34,200 2,100 Climbing Fort Worth Center
Wed 10:25:02 AM 34.9858 -96.8586 North 472 543 36,600 1,400 Climbing Fort Worth Center
Wed 10:26:02 AM 35.1192 -96.8425 North 466 536 37,000 134 Climbing Fort Worth Center
Wed 10:28:01 AM 35.3764 -96.8106 North 480 552 37,000  Level Kansas City Center
Wed 10:29:01 AM 35.5069 -96.7950 North 477 549 37,000  Level Kansas City Center
Wed 10:30:03 AM 35.6389 -96.7800 North 478 550 37,000  Level Kansas City Center
Wed 10:31:07 AM 35.7711 -96.7647 North 480 552 37,000  Level Kansas City Center
Wed 10:32:07 AM 35.9044 -96.7500 North 482 555 37,000  Level Kansas City Center
Wed 10:33:11 AM 36.0544 -96.7322 North 482 555 37,000  Level Kansas City Center
Wed 10:34:11 AM 36.1883 -96.7167 North 481 554 37,000  Level Kansas City Center
Wed 10:35:15 AM 36.3214 -96.7006 North 479 551 37,000  Level Kansas City Center
Wed 10:36:16 AM 36.4558 -96.6842 North 480 552 37,000  Level Kansas City Center
Wed 10:37:20 AM 36.6158 -96.6642 North 480 552 37,000  Level Kansas City Center
Wed 10:38:21 AM 36.7489 -96.6472 North 478 550 37,000  Level Kansas City Center
Wed 10:39:24 AM 36.8822 -96.6311 North 478 550 37,000  Level Kansas City Center
Wed 10:40:25 AM 37.0172 -96.6139 North 482 555 37,000  Level Kansas City Center
Wed 10:41:28 AM 37.1556 -96.5972 North 479 551 37,000  Level Kansas City Center
Wed 10:42:29 AM 37.2867 -96.5817 North 475 547 37,000  Level Kansas City Center
Wed 10:43:32 AM 37.4186 -96.5661 North 476 548 37,000  Level Kansas City Center
Wed 10:44:34 AM 37.5503 -96.5492 North 476 548 37,000  Level Kansas City Center
Wed 10:45:35 AM 37.6853 -96.5319 North 484 557 37,000  Level Kansas City Center
Wed 10:46:36 AM 37.8431 -96.5128 North 475 547 37,000  Level Kansas City Center
Wed 10:47:39 AM 37.9747 -96.4956 North 476 548 37,000  Level Kansas City Center
Wed 10:48:43 AM 38.1067 -96.4783 North 476 548 37,000  Level Kansas City Center
Wed 10:49:44 AM 38.2453 -96.4625 North 476 548 37,000  Level Kansas City Center
Wed 10:50:44 AM 38.3928 -96.4442 North 476 548 37,000 -97 Level Kansas City Center
Wed 10:51:48 AM 38.5189 -96.4272 North 477 549 36,800 -480 Descending Kansas City Center
Wed 10:52:49 AM 38.6453 -96.4108 North 475 547 36,000 -387 Descending Kansas City Center
Wed 10:53:52 AM 38.7944 -96.3908 North 481 554 36,000 -48 Level Kansas City Center
Wed 10:54:53 AM 38.9242 -96.3758 North 484 557 35,900 -576 Descending Kansas City Center
Wed 10:55:57 AM 39.0775 -96.3547 North 494 568 34,800 -1,048 Descending Kansas City Center
Wed 10:56:59 AM 39.2131 -96.3361 North 507 583 33,700 -1,131 Descending Kansas City Center
Wed 10:57:59 AM 39.3739 -96.3164 North 515 593 32,500 -1,140 Descending Kansas City Center
Wed 10:59:00 AM 39.5161 -96.2981 North 514 592 31,400 -1,104 Descending Kansas City Center
Wed 11:00:04 AM 39.6681 -96.2772 North 509 586 30,200 -1,087 Descending Kansas City Center
Wed 11:01:07 AM 39.8086 -96.2583 North 509 586 29,100 -1,073 Descending Kansas City Center
Wed 11:02:07 AM 39.9583 -96.2389 North 504 580 28,000 -532 Descending Kansas City Center
Wed 11:03:11 AM 40.0767 -96.2219 North 504 580 28,000 -960 Level Kansas City Center
Wed 11:04:12 AM 40.2389 -96.2000 North 492 566 26,000 -2,660 Descending Kansas City Center
Wed 11:04:48 AM 40.3172 -96.1706 16° North 493 567 23,700 -3,403 Descending Minneapolis Center
Wed 11:05:19 AM 40.3800 -96.1806 353° North 492 566 22,200 -3,224 Descending Minneapolis Center
Wed 11:05:55 AM 40.4686 -96.1511 14° North 469 540 20,100 -2,907 Descending Minneapolis Center
Wed 11:06:56 AM 40.5956 -96.1369 North 454 522 17,500 -2,727 Descending Minneapolis Center
Wed 11:07:56 AM 40.7222 -96.1228 North 433 498 14,600 -2,661 Descending Minneapolis Center
Wed 11:08:51 AM 40.8197 -96.1092 North 375 432 12,400 -1,846 Descending Minneapolis Center
Wed 11:09:27 AM 40.8750 -96.1078 North 381 438 11,800 -1,653 Descending Minneapolis Center
Wed 11:10:29 AM 40.9633 -96.0953 North 336 387 9,700 -2,081 Descending Minneapolis Center
Wed 11:11:31 AM 41.0458 -96.0836 North 315 362 7,500 -1,984 Descending Minneapolis Center
Wed 11:12:33 AM 41.1275 -96.0700 North 304 350 5,600 -1,210 Descending Minneapolis Center
Wed 11:13:35 AM 41.2044 -96.0508 11° North 294 338 5,000 -774 Descending Minneapolis Center
Wed 11:14:37 AM 41.2806 -96.0325 10° North 258 297 4,000 -435 Descending Minneapolis Center
Wed 11:15:39 AM 41.3386 -96.0181 11° North 235 270 4,100  Climbing Minneapolis Center
Wed 11:16:41 AM 41.3681 -95.9831 42° Northeast 223 257 4,000 -1,000 Descending Minneapolis Center
Wed 11:18:00 AM 41.3032 -95.8941 53° Northeast  Level Estimated
Wed 11:18:45 AM 41.3086 -95.8947 53° Northeast 156 180 1,000  Level Minneapolis Center

Login

Don't have an account? Register now (free) for customized features, flight alerts, and more!